sensor_id;sensor_type;location;lat;lon;timestamp;P1;durP1;ratioP1;P2;durP2;ratioP2
42338;SDS011;27993;45.392;10.918;2023-02-01T00:02:16;73.78;;;29.45;;
42338;SDS011;27993;45.392;10.918;2023-02-01T00:04:47;58.35;;;30.67;;
42338;SDS011;27993;45.392;10.918;2023-02-01T00:07:17;75.40;;;30.65;;
42338;SDS011;27993;45.392;10.918;2023-02-01T00:09:48;63.90;;;30.95;;
42338;SDS011;27993;45.392;10.918;2023-02-01T00:12:19;55.97;;;27.75;;
42338;SDS011;27993;45.392;10.918;2023-02-01T00:14:49;71.53;;;30.33;;
42338;SDS011;27993;45.392;10.918;2023-02-01T00:17:20;57.47;;;27.98;;
42338;SDS011;27993;45.392;10.918;2023-02-01T00:19:50;61.95;;;28.67;;
42338;SDS011;27993;45.392;10.918;2023-02-01T00:22:21;54.67;;;28.70;;
42338;SDS011;27993;45.392;10.918;2023-02-01T00:24:52;58.00;;;29.87;;
42338;SDS011;27993;45.392;10.918;2023-02-01T00:27:22;67.37;;;29.48;;
42338;SDS011;27993;45.392;10.918;2023-02-01T00:29:56;70.50;;;30.75;;
42338;SDS011;27993;45.392;10.918;2023-02-01T00:32:27;70.12;;;31.70;;
42338;SDS011;27993;45.392;10.918;2023-02-01T00:35:01;60.80;;;27.87;;
42338;SDS011;27993;45.392;10.918;2023-02-01T00:37:32;76.78;;;30.67;;
42338;SDS011;27993;45.392;10.918;2023-02-01T00:40:03;65.10;;;29.35;;
42338;SDS011;27993;45.392;10.918;2023-02-01T00:42:34;67.20;;;30.20;;
42338;SDS011;27993;45.392;10.918;2023-02-01T00:45:04;59.83;;;27.00;;
42338;SDS011;27993;45.392;10.918;2023-02-01T00:47:36;67.73;;;28.57;;
42338;SDS011;27993;45.392;10.918;2023-02-01T00:50:09;59.38;;;28.83;;
42338;SDS011;27993;45.392;10.918;2023-02-01T00:52:40;70.80;;;29.48;;
42338;SDS011;27993;45.392;10.918;2023-02-01T00:55:11;59.55;;;29.37;;
42338;SDS011;27993;45.392;10.918;2023-02-01T00:57:41;54.10;;;26.98;;
42338;SDS011;27993;45.392;10.918;2023-02-01T01:00:12;69.05;;;28.48;;
42338;SDS011;27993;45.392;10.918;2023-02-01T01:02:43;55.92;;;28.50;;
42338;SDS011;27993;45.392;10.918;2023-02-01T01:05:14;63.15;;;28.87;;
42338;SDS011;27993;45.392;10.918;2023-02-01T01:07:44;55.58;;;27.33;;
42338;SDS011;27993;45.392;10.918;2023-02-01T01:10:15;59.50;;;27.95;;
42338;SDS011;27993;45.392;10.918;2023-02-01T01:12:46;66.07;;;29.10;;
42338;SDS011;27993;45.392;10.918;2023-02-01T01:15:16;58.70;;;27.00;;
42338;SDS011;27993;45.392;10.918;2023-02-01T01:17:47;61.35;;;28.45;;
42338;SDS011;27993;45.392;10.918;2023-02-01T01:20:18;56.13;;;28.15;;
42338;SDS011;27993;45.392;10.918;2023-02-01T01:22:51;57.75;;;29.25;;
42338;SDS011;27993;45.392;10.918;2023-02-01T01:25:22;59.47;;;25.98;;
42338;SDS011;27993;45.392;10.918;2023-02-01T01:27:52;60.63;;;27.87;;
42338;SDS011;27993;45.392;10.918;2023-02-01T01:30:23;60.17;;;27.92;;
42338;SDS011;27993;45.392;10.918;2023-02-01T01:32:54;69.97;;;27.62;;
42338;SDS011;27993;45.392;10.918;2023-02-01T01:35:24;55.65;;;25.73;;
42338;SDS011;27993;45.392;10.918;2023-02-01T01:37:55;64.20;;;25.73;;
42338;SDS011;27993;45.392;10.918;2023-02-01T01:40:26;53.78;;;25.83;;
42338;SDS011;27993;45.392;10.918;2023-02-01T01:42:57;50.88;;;24.83;;
42338;SDS011;27993;45.392;10.918;2023-02-01T01:51:00;54.58;;;27.98;;
42338;SDS011;27993;45.392;10.918;2023-02-01T01:56:13;47.58;;;22.52;;
42338;SDS011;27993;45.392;10.918;2023-02-01T01:58:45;63.95;;;25.62;;
42338;SDS011;27993;45.392;10.918;2023-02-01T02:01:15;72.30;;;27.37;;
42338;SDS011;27993;45.392;10.918;2023-02-01T02:03:46;51.40;;;24.45;;
42338;SDS011;27993;45.392;10.918;2023-02-01T02:06:32;54.50;;;26.48;;
42338;SDS011;27993;45.392;10.918;2023-02-01T02:09:08;57.10;;;28.12;;
42338;SDS011;27993;45.392;10.918;2023-02-01T02:11:39;48.55;;;25.25;;
42338;SDS011;27993;45.392;10.918;2023-02-01T02:14:11;49.45;;;23.77;;
42338;SDS011;27993;45.392;10.918;2023-02-01T02:16:52;48.35;;;24.55;;
42338;SDS011;27993;45.392;10.918;2023-02-01T02:25:42;51.90;;;24.10;;
42338;SDS011;27993;45.392;10.918;2023-02-01T02:29:09;56.37;;;24.95;;
42338;SDS011;27993;45.392;10.918;2023-02-01T02:34:54;41.65;;;20.95;;
42338;SDS011;27993;45.392;10.918;2023-02-01T02:37:41;55.65;;;25.35;;
42338;SDS011;27993;45.392;10.918;2023-02-01T02:40:27;47.17;;;22.45;;
42338;SDS011;27993;45.392;10.918;2023-02-01T02:43:51;51.50;;;21.90;;
42338;SDS011;27993;45.392;10.918;2023-02-01T02:46:25;43.80;;;21.42;;
42338;SDS011;27993;45.392;10.918;2023-02-01T02:49:23;44.60;;;21.52;;
42338;SDS011;27993;45.392;10.918;2023-02-01T02:52:05;54.00;;;23.60;;
42338;SDS011;27993;45.392;10.918;2023-02-01T02:55:03;45.10;;;21.77;;
42338;SDS011;27993;45.392;10.918;2023-02-01T02:57:39;43.42;;;22.60;;
42338;SDS011;27993;45.392;10.918;2023-02-01T03:00:31;43.03;;;22.02;;
42338;SDS011;27993;45.392;10.918;2023-02-01T03:03:22;44.80;;;22.20;;
42338;SDS011;27993;45.392;10.918;2023-02-01T03:06:15;46.30;;;21.20;;
42338;SDS011;27993;45.392;10.918;2023-02-01T03:08:48;46.67;;;21.90;;
42338;SDS011;27993;45.392;10.918;2023-02-01T03:11:23;55.05;;;24.52;;
42338;SDS011;27993;45.392;10.918;2023-02-01T03:14:15;46.63;;;21.85;;
42338;SDS011;27993;45.392;10.918;2023-02-01T03:16:52;47.55;;;24.10;;
42338;SDS011;27993;45.392;10.918;2023-02-01T03:19:35;45.85;;;22.40;;
42338;SDS011;27993;45.392;10.918;2023-02-01T03:22:23;49.03;;;20.60;;
42338;SDS011;27993;45.392;10.918;2023-02-01T03:24:59;48.63;;;23.23;;
42338;SDS011;27993;45.392;10.918;2023-02-01T03:27:42;45.17;;;22.05;;
42338;SDS011;27993;45.392;10.918;2023-02-01T03:32:56;51.95;;;23.25;;
42338;SDS011;27993;45.392;10.918;2023-02-01T03:35:30;58.03;;;25.40;;
42338;SDS011;27993;45.392;10.918;2023-02-01T03:41:35;40.67;;;22.37;;
42338;SDS011;27993;45.392;10.918;2023-02-01T03:46:45;57.13;;;23.50;;
42338;SDS011;27993;45.392;10.918;2023-02-01T03:49:23;50.05;;;24.55;;
42338;SDS011;27993;45.392;10.918;2023-02-01T03:52:00;50.00;;;23.10;;
42338;SDS011;27993;45.392;10.918;2023-02-01T03:54:31;39.40;;;22.65;;
42338;SDS011;27993;45.392;10.918;2023-02-01T03:57:05;52.42;;;23.12;;
42338;SDS011;27993;45.392;10.918;2023-02-01T03:59:44;54.40;;;21.27;;
42338;SDS011;27993;45.392;10.918;2023-02-01T04:02:16;41.55;;;20.88;;
42338;SDS011;27993;45.392;10.918;2023-02-01T04:04:47;44.00;;;22.27;;
42338;SDS011;27993;45.392;10.918;2023-02-01T04:07:17;46.55;;;22.85;;
42338;SDS011;27993;45.392;10.918;2023-02-01T04:09:48;48.38;;;22.02;;
42338;SDS011;27993;45.392;10.918;2023-02-01T04:12:19;51.45;;;25.85;;
42338;SDS011;27993;45.392;10.918;2023-02-01T04:14:49;49.78;;;23.62;;
42338;SDS011;27993;45.392;10.918;2023-02-01T04:17:20;42.03;;;20.33;;
42338;SDS011;27993;45.392;10.918;2023-02-01T04:19:51;48.40;;;22.17;;
42338;SDS011;27993;45.392;10.918;2023-02-01T04:22:21;53.95;;;23.70;;
42338;SDS011;27993;45.392;10.918;2023-02-01T04:24:52;51.85;;;23.02;;
42338;SDS011;27993;45.392;10.918;2023-02-01T04:27:23;52.13;;;23.23;;
42338;SDS011;27993;45.392;10.918;2023-02-01T04:29:53;48.63;;;24.42;;
42338;SDS011;27993;45.392;10.918;2023-02-01T04:32:24;46.88;;;24.20;;
42338;SDS011;27993;45.392;10.918;2023-02-01T04:34:54;49.13;;;23.65;;
42338;SDS011;27993;45.392;10.918;2023-02-01T04:37:25;52.70;;;23.80;;
42338;SDS011;27993;45.392;10.918;2023-02-01T04:39:56;50.60;;;22.65;;
42338;SDS011;27993;45.392;10.918;2023-02-01T04:42:26;52.10;;;23.48;;
42338;SDS011;27993;45.392;10.918;2023-02-01T04:44:57;59.63;;;25.45;;
42338;SDS011;27993;45.392;10.918;2023-02-01T04:47:28;60.42;;;24.33;;
42338;SDS011;27993;45.392;10.918;2023-02-01T04:49:58;46.22;;;24.23;;
42338;SDS011;27993;45.392;10.918;2023-02-01T04:52:29;59.75;;;27.83;;
42338;SDS011;27993;45.392;10.918;2023-02-01T04:55:00;49.67;;;25.10;;
42338;SDS011;27993;45.392;10.918;2023-02-01T04:57:32;49.80;;;22.27;;
42338;SDS011;27993;45.392;10.918;2023-02-01T05:00:03;41.97;;;19.48;;
42338;SDS011;27993;45.392;10.918;2023-02-01T05:02:34;36.53;;;17.37;;
42338;SDS011;27993;45.392;10.918;2023-02-01T05:05:05;41.50;;;19.15;;
42338;SDS011;27993;45.392;10.918;2023-02-01T05:07:36;50.22;;;19.87;;
42338;SDS011;27993;45.392;10.918;2023-02-01T05:10:07;41.40;;;18.87;;
42338;SDS011;27993;45.392;10.918;2023-02-01T05:12:38;40.03;;;17.80;;
42338;SDS011;27993;45.392;10.918;2023-02-01T05:15:27;47.62;;;18.42;;
42338;SDS011;27993;45.392;10.918;2023-02-01T05:17:59;51.60;;;20.58;;
42338;SDS011;27993;45.392;10.918;2023-02-01T05:20:29;43.17;;;20.17;;
42338;SDS011;27993;45.392;10.918;2023-02-01T05:23:00;39.67;;;19.08;;
42338;SDS011;27993;45.392;10.918;2023-02-01T05:25:31;39.67;;;18.17;;
42338;SDS011;27993;45.392;10.918;2023-02-01T05:28:01;36.28;;;18.12;;
42338;SDS011;27993;45.392;10.918;2023-02-01T05:30:32;38.92;;;16.67;;
42338;SDS011;27993;45.392;10.918;2023-02-01T05:33:05;44.80;;;16.85;;
42338;SDS011;27993;45.392;10.918;2023-02-01T05:35:35;43.30;;;17.55;;
42338;SDS011;27993;45.392;10.918;2023-02-01T05:38:06;34.20;;;16.73;;
42338;SDS011;27993;45.392;10.918;2023-02-01T05:40:37;33.67;;;16.15;;
42338;SDS011;27993;45.392;10.918;2023-02-01T05:43:07;44.13;;;16.95;;
42338;SDS011;27993;45.392;10.918;2023-02-01T05:45:38;37.15;;;17.80;;
42338;SDS011;27993;45.392;10.918;2023-02-01T05:48:08;48.08;;;17.85;;
42338;SDS011;27993;45.392;10.918;2023-02-01T05:50:39;47.03;;;18.50;;
42338;SDS011;27993;45.392;10.918;2023-02-01T05:53:10;32.28;;;15.82;;
42338;SDS011;27993;45.392;10.918;2023-02-01T05:55:41;33.67;;;14.93;;
42338;SDS011;27993;45.392;10.918;2023-02-01T05:58:12;42.22;;;17.27;;
42338;SDS011;27993;45.392;10.918;2023-02-01T06:00:42;63.20;;;24.50;;
42338;SDS011;27993;45.392;10.918;2023-02-01T06:03:13;64.25;;;26.45;;
42338;SDS011;27993;45.392;10.918;2023-02-01T06:05:44;47.83;;;21.48;;
42338;SDS011;27993;45.392;10.918;2023-02-01T06:08:15;38.25;;;18.50;;
42338;SDS011;27993;45.392;10.918;2023-02-01T06:10:47;46.45;;;19.77;;
42338;SDS011;27993;45.392;10.918;2023-02-01T06:13:17;38.53;;;17.90;;
42338;SDS011;27993;45.392;10.918;2023-02-01T06:15:50;58.45;;;25.55;;
42338;SDS011;27993;45.392;10.918;2023-02-01T06:18:21;53.30;;;22.42;;
42338;SDS011;27993;45.392;10.918;2023-02-01T06:20:52;40.00;;;19.42;;
42338;SDS011;27993;45.392;10.918;2023-02-01T06:23:26;48.45;;;21.98;;
42338;SDS011;27993;45.392;10.918;2023-02-01T06:25:58;55.58;;;22.95;;
42338;SDS011;27993;45.392;10.918;2023-02-01T06:28:32;36.05;;;18.45;;
42338;SDS011;27993;45.392;10.918;2023-02-01T06:31:06;40.95;;;18.35;;
42338;SDS011;27993;45.392;10.918;2023-02-01T06:33:37;42.83;;;19.77;;
42338;SDS011;27993;45.392;10.918;2023-02-01T06:36:10;42.97;;;20.10;;
42338;SDS011;27993;45.392;10.918;2023-02-01T06:38:42;52.28;;;20.20;;
42338;SDS011;27993;45.392;10.918;2023-02-01T06:41:13;41.40;;;19.87;;
42338;SDS011;27993;45.392;10.918;2023-02-01T06:43:43;39.25;;;18.30;;
42338;SDS011;27993;45.392;10.918;2023-02-01T06:46:15;46.37;;;19.98;;
42338;SDS011;27993;45.392;10.918;2023-02-01T06:48:46;36.28;;;17.33;;
42338;SDS011;27993;45.392;10.918;2023-02-01T06:51:23;36.65;;;16.67;;
42338;SDS011;27993;45.392;10.918;2023-02-01T06:53:56;43.80;;;18.25;;
42338;SDS011;27993;45.392;10.918;2023-02-01T06:56:27;39.25;;;17.45;;
42338;SDS011;27993;45.392;10.918;2023-02-01T06:58:58;44.97;;;18.85;;
42338;SDS011;27993;45.392;10.918;2023-02-01T07:01:28;48.08;;;19.77;;
42338;SDS011;27993;45.392;10.918;2023-02-01T07:03:59;37.67;;;16.73;;
42338;SDS011;27993;45.392;10.918;2023-02-01T07:06:30;39.47;;;19.25;;
42338;SDS011;27993;45.392;10.918;2023-02-01T07:09:00;43.47;;;17.60;;
42338;SDS011;27993;45.392;10.918;2023-02-01T07:11:31;53.53;;;19.73;;
42338;SDS011;27993;45.392;10.918;2023-02-01T07:14:02;41.30;;;19.02;;
42338;SDS011;27993;45.392;10.918;2023-02-01T07:16:33;40.30;;;19.12;;
42338;SDS011;27993;45.392;10.918;2023-02-01T07:19:03;70.10;;;23.60;;
42338;SDS011;27993;45.392;10.918;2023-02-01T07:21:34;50.17;;;22.27;;
42338;SDS011;27993;45.392;10.918;2023-02-01T07:24:05;46.95;;;23.52;;
42338;SDS011;27993;45.392;10.918;2023-02-01T07:26:36;73.25;;;30.48;;
42338;SDS011;27993;45.392;10.918;2023-02-01T07:29:09;56.05;;;25.55;;
42338;SDS011;27993;45.392;10.918;2023-02-01T07:31:40;59.03;;;29.50;;
42338;SDS011;27993;45.392;10.918;2023-02-01T07:34:11;70.05;;;31.17;;
42338;SDS011;27993;45.392;10.918;2023-02-01T07:36:41;46.83;;;25.07;;
42338;SDS011;27993;45.392;10.918;2023-02-01T07:39:12;41.95;;;23.10;;
42338;SDS011;27993;45.392;10.918;2023-02-01T07:41:43;50.30;;;24.48;;
42338;SDS011;27993;45.392;10.918;2023-02-01T07:44:13;46.92;;;22.73;;
42338;SDS011;27993;45.392;10.918;2023-02-01T07:46:44;55.78;;;25.20;;
42338;SDS011;27993;45.392;10.918;2023-02-01T07:49:15;50.15;;;24.75;;
42338;SDS011;27993;45.392;10.918;2023-02-01T07:51:47;56.75;;;26.92;;
42338;SDS011;27993;45.392;10.918;2023-02-01T07:54:18;51.60;;;26.60;;
42338;SDS011;27993;45.392;10.918;2023-02-01T07:56:48;56.30;;;30.50;;
42338;SDS011;27993;45.392;10.918;2023-02-01T07:59:19;58.97;;;32.93;;
42338;SDS011;27993;45.392;10.918;2023-02-01T08:01:49;69.53;;;35.73;;
42338;SDS011;27993;45.392;10.918;2023-02-01T08:04:20;65.47;;;32.43;;
42338;SDS011;27993;45.392;10.918;2023-02-01T08:06:51;66.17;;;35.67;;
42338;SDS011;27993;45.392;10.918;2023-02-01T08:09:21;89.43;;;42.70;;
42338;SDS011;27993;45.392;10.918;2023-02-01T08:11:52;78.80;;;42.97;;
42338;SDS011;27993;45.392;10.918;2023-02-01T08:14:22;75.43;;;38.20;;
42338;SDS011;27993;45.392;10.918;2023-02-01T08:16:53;72.90;;;39.23;;
42338;SDS011;27993;45.392;10.918;2023-02-01T08:19:24;69.50;;;37.30;;
42338;SDS011;27993;45.392;10.918;2023-02-01T08:21:54;63.23;;;34.43;;
42338;SDS011;27993;45.392;10.918;2023-02-01T08:24:25;68.60;;;37.17;;
42338;SDS011;27993;45.392;10.918;2023-02-01T08:26:55;71.10;;;36.93;;
42338;SDS011;27993;45.392;10.918;2023-02-01T08:29:26;63.03;;;34.57;;
42338;SDS011;27993;45.392;10.918;2023-02-01T08:31:57;48.37;;;29.30;;
42338;SDS011;27993;45.392;10.918;2023-02-01T08:34:27;58.90;;;28.30;;
42338;SDS011;27993;45.392;10.918;2023-02-01T08:36:58;50.00;;;27.90;;
42338;SDS011;27993;45.392;10.918;2023-02-01T08:39:29;47.55;;;26.37;;
42338;SDS011;27993;45.392;10.918;2023-02-01T08:42:00;58.60;;;26.47;;
42338;SDS011;27993;45.392;10.918;2023-02-01T08:44:49;55.88;;;26.98;;
42338;SDS011;27993;45.392;10.918;2023-02-01T08:47:21;49.65;;;27.62;;
42338;SDS011;27993;45.392;10.918;2023-02-01T08:49:52;57.80;;;27.40;;
42338;SDS011;27993;45.392;10.918;2023-02-01T08:52:23;53.97;;;27.83;;
42338;SDS011;27993;45.392;10.918;2023-02-01T08:54:54;53.85;;;29.17;;
42338;SDS011;27993;45.392;10.918;2023-02-01T08:57:25;50.13;;;25.57;;
42338;SDS011;27993;45.392;10.918;2023-02-01T08:59:56;50.35;;;26.75;;
42338;SDS011;27993;45.392;10.918;2023-02-01T09:02:26;49.73;;;27.57;;
42338;SDS011;27993;45.392;10.918;2023-02-01T09:04:57;53.27;;;25.93;;
42338;SDS011;27993;45.392;10.918;2023-02-01T09:07:28;49.50;;;29.67;;
42338;SDS011;27993;45.392;10.918;2023-02-01T09:09:58;57.13;;;28.67;;
42338;SDS011;27993;45.392;10.918;2023-02-01T09:12:31;56.25;;;29.30;;
42338;SDS011;27993;45.392;10.918;2023-02-01T09:15:03;90.53;;;40.30;;
42338;SDS011;27993;45.392;10.918;2023-02-01T09:17:36;75.65;;;39.35;;
42338;SDS011;27993;45.392;10.918;2023-02-01T09:20:08;65.37;;;36.60;;
42338;SDS011;27993;45.392;10.918;2023-02-01T09:22:39;63.10;;;35.33;;
42338;SDS011;27993;45.392;10.918;2023-02-01T09:25:10;71.50;;;40.58;;
42338;SDS011;27993;45.392;10.918;2023-02-01T09:27:41;76.20;;;42.47;;
42338;SDS011;27993;45.392;10.918;2023-02-01T09:30:12;78.67;;;41.67;;
42338;SDS011;27993;45.392;10.918;2023-02-01T09:32:43;81.25;;;39.20;;
42338;SDS011;27993;45.392;10.918;2023-02-01T09:35:13;85.60;;;40.07;;
42338;SDS011;27993;45.392;10.918;2023-02-01T09:37:44;78.53;;;40.37;;
42338;SDS011;27993;45.392;10.918;2023-02-01T09:40:15;87.70;;;40.63;;
42338;SDS011;27993;45.392;10.918;2023-02-01T09:43:00;92.97;;;42.55;;
42338;SDS011;27993;45.392;10.918;2023-02-01T09:46:10;105.75;;;49.78;;
42338;SDS011;27993;45.392;10.918;2023-02-01T09:51:46;90.00;;;50.55;;
42338;SDS011;27993;45.392;10.918;2023-02-01T09:54:21;85.65;;;49.60;;
42338;SDS011;27993;45.392;10.918;2023-02-01T10:00:33;92.62;;;50.17;;
42338;SDS011;27993;45.392;10.918;2023-02-01T10:03:16;81.05;;;50.42;;
42338;SDS011;27993;45.392;10.918;2023-02-01T10:17:18;84.25;;;50.38;;
42338;SDS011;27993;45.392;10.918;2023-02-01T10:22:42;89.65;;;51.83;;
42338;SDS011;27993;45.392;10.918;2023-02-01T10:27:47;83.93;;;49.80;;
42338;SDS011;27993;45.392;10.918;2023-02-01T10:30:19;96.97;;;50.28;;
42338;SDS011;27993;45.392;10.918;2023-02-01T10:32:56;88.22;;;49.72;;
42338;SDS011;27993;45.392;10.918;2023-02-01T10:35:35;91.00;;;51.35;;
42338;SDS011;27993;45.392;10.918;2023-02-01T10:38:12;97.80;;;50.53;;
42338;SDS011;27993;45.392;10.918;2023-02-01T10:40:55;94.97;;;51.20;;
42338;SDS011;27993;45.392;10.918;2023-02-01T10:43:32;90.72;;;48.72;;
42338;SDS011;27993;45.392;10.918;2023-02-01T10:46:03;84.65;;;49.00;;
42338;SDS011;27993;45.392;10.918;2023-02-01T10:48:35;84.87;;;49.20;;
42338;SDS011;27993;45.392;10.918;2023-02-01T10:51:10;85.97;;;51.05;;
42338;SDS011;27993;45.392;10.918;2023-02-01T10:56:25;90.87;;;52.30;;
42338;SDS011;27993;45.392;10.918;2023-02-01T10:59:05;88.10;;;52.92;;
42338;SDS011;27993;45.392;10.918;2023-02-01T11:01:40;80.47;;;49.78;;
42338;SDS011;27993;45.392;10.918;2023-02-01T11:04:12;81.82;;;51.10;;
42338;SDS011;27993;45.392;10.918;2023-02-01T11:06:53;81.78;;;49.60;;
42338;SDS011;27993;45.392;10.918;2023-02-01T11:09:57;85.20;;;51.80;;
42338;SDS011;27993;45.392;10.918;2023-02-01T11:12:29;78.90;;;51.00;;
42338;SDS011;27993;45.392;10.918;2023-02-01T11:15:13;92.43;;;52.95;;
42338;SDS011;27993;45.392;10.918;2023-02-01T11:17:49;80.68;;;51.50;;
42338;SDS011;27993;45.392;10.918;2023-02-01T11:20:34;93.57;;;55.15;;
42338;SDS011;27993;45.392;10.918;2023-02-01T11:23:15;84.75;;;52.33;;
42338;SDS011;27993;45.392;10.918;2023-02-01T11:25:51;83.35;;;53.72;;
42338;SDS011;27993;45.392;10.918;2023-02-01T11:28:25;83.70;;;54.30;;
42338;SDS011;27993;45.392;10.918;2023-02-01T11:31:02;86.87;;;56.53;;
42338;SDS011;27993;45.392;10.918;2023-02-01T11:33:39;81.22;;;53.63;;
42338;SDS011;27993;45.392;10.918;2023-02-01T11:36:18;86.70;;;53.40;;
42338;SDS011;27993;45.392;10.918;2023-02-01T11:44:30;76.73;;;51.90;;
42338;SDS011;27993;45.392;10.918;2023-02-01T11:49:55;87.40;;;52.65;;
42338;SDS011;27993;45.392;10.918;2023-02-01T12:06:14;86.90;;;51.75;;
42338;SDS011;27993;45.392;10.918;2023-02-01T12:14:35;88.45;;;51.30;;
42338;SDS011;27993;45.392;10.918;2023-02-01T12:22:42;88.47;;;49.15;;
42338;SDS011;27993;45.392;10.918;2023-02-01T12:25:35;82.80;;;48.28;;
42338;SDS011;27993;45.392;10.918;2023-02-01T12:31:33;84.53;;;50.78;;
42338;SDS011;27993;45.392;10.918;2023-02-01T12:36:57;81.47;;;46.78;;
42338;SDS011;27993;45.392;10.918;2023-02-01T12:39:40;100.53;;;50.15;;
42338;SDS011;27993;45.392;10.918;2023-02-01T12:42:21;91.15;;;50.42;;
42338;SDS011;27993;45.392;10.918;2023-02-01T12:44:56;84.40;;;50.25;;
42338;SDS011;27993;45.392;10.918;2023-02-01T12:47:39;76.55;;;47.42;;
42338;SDS011;27993;45.392;10.918;2023-02-01T12:52:53;31.65;;;16.15;;
42338;SDS011;27993;45.392;10.918;2023-02-01T12:58:12;26.92;;;13.13;;
42338;SDS011;27993;45.392;10.918;2023-02-01T13:01:01;28.05;;;12.73;;
42338;SDS011;27993;45.392;10.918;2023-02-01T13:06:24;15.57;;;9.05;;
42338;SDS011;27993;45.392;10.918;2023-02-01T13:09:00;7.07;;;5.18;;
42338;SDS011;27993;45.392;10.918;2023-02-01T13:11:54;29.42;;;13.48;;
42338;SDS011;27993;45.392;10.918;2023-02-01T13:14:40;7.53;;;6.20;;
42338;SDS011;27993;45.392;10.918;2023-02-01T13:17:15;23.87;;;11.10;;
42338;SDS011;27993;45.392;10.918;2023-02-01T13:19:56;11.15;;;6.78;;
42338;SDS011;27993;45.392;10.918;2023-02-01T13:22:34;10.82;;;6.80;;
42338;SDS011;27993;45.392;10.918;2023-02-01T13:25:37;50.55;;;28.40;;
42338;SDS011;27993;45.392;10.918;2023-02-01T13:28:55;22.90;;;11.68;;
42338;SDS011;27993;45.392;10.918;2023-02-01T13:34:26;68.43;;;31.48;;
42338;SDS011;27993;45.392;10.918;2023-02-01T13:42:54;18.50;;;11.55;;
42338;SDS011;27993;45.392;10.918;2023-02-01T13:45:33;53.33;;;21.33;;
42338;SDS011;27993;45.392;10.918;2023-02-01T13:48:14;98.32;;;52.42;;
42338;SDS011;27993;45.392;10.918;2023-02-01T13:50:54;82.20;;;41.85;;
42338;SDS011;27993;45.392;10.918;2023-02-01T14:03:53;70.00;;;41.55;;
42338;SDS011;27993;45.392;10.918;2023-02-01T14:11:39;76.50;;;43.38;;
42338;SDS011;27993;45.392;10.918;2023-02-01T14:19:28;74.75;;;44.38;;
42338;SDS011;27993;45.392;10.918;2023-02-01T14:24:55;84.10;;;45.70;;
42338;SDS011;27993;45.392;10.918;2023-02-01T14:27:28;70.05;;;42.83;;
42338;SDS011;27993;45.392;10.918;2023-02-01T14:30:05;80.80;;;46.25;;
42338;SDS011;27993;45.392;10.918;2023-02-01T14:32:37;74.37;;;45.45;;
42338;SDS011;27993;45.392;10.918;2023-02-01T14:35:18;92.22;;;49.70;;
42338;SDS011;27993;45.392;10.918;2023-02-01T14:37:52;89.95;;;50.95;;
42338;SDS011;27993;45.392;10.918;2023-02-01T14:40:28;71.78;;;45.70;;
42338;SDS011;27993;45.392;10.918;2023-02-01T14:42:59;78.78;;;46.30;;
42338;SDS011;27993;45.392;10.918;2023-02-01T14:50:41;75.35;;;45.42;;
42338;SDS011;27993;45.392;10.918;2023-02-01T14:53:16;73.10;;;45.20;;
42338;SDS011;27993;45.392;10.918;2023-02-01T15:01:31;82.35;;;43.87;;
42338;SDS011;27993;45.392;10.918;2023-02-01T15:09:28;90.28;;;45.60;;
42338;SDS011;27993;45.392;10.918;2023-02-01T15:14:45;88.85;;;44.75;;
42338;SDS011;27993;45.392;10.918;2023-02-01T15:22:28;91.63;;;48.63;;
42338;SDS011;27993;45.392;10.918;2023-02-01T15:25:00;115.10;;;46.85;;
42338;SDS011;27993;45.392;10.918;2023-02-01T15:27:31;87.77;;;46.07;;
42338;SDS011;27993;45.392;10.918;2023-02-01T15:30:16;86.85;;;45.60;;
42338;SDS011;27993;45.392;10.918;2023-02-01T15:32:52;90.43;;;49.10;;
42338;SDS011;27993;45.392;10.918;2023-02-01T15:35:42;89.00;;;48.00;;
42338;SDS011;27993;45.392;10.918;2023-02-01T15:41:02;86.78;;;48.40;;
42338;SDS011;27993;45.392;10.918;2023-02-01T15:43:37;88.65;;;45.75;;
42338;SDS011;27993;45.392;10.918;2023-02-01T15:46:15;91.97;;;46.35;;
42338;SDS011;27993;45.392;10.918;2023-02-01T15:48:51;74.20;;;43.35;;
42338;SDS011;27993;45.392;10.918;2023-02-01T15:51:24;81.55;;;42.67;;
42338;SDS011;27993;45.392;10.918;2023-02-01T15:56:38;78.25;;;45.70;;
42338;SDS011;27993;45.392;10.918;2023-02-01T15:59:15;88.15;;;44.78;;
42338;SDS011;27993;45.392;10.918;2023-02-01T16:01:47;75.55;;;45.55;;
42338;SDS011;27993;45.392;10.918;2023-02-01T16:04:25;88.57;;;46.97;;
42338;SDS011;27993;45.392;10.918;2023-02-01T16:07:00;81.45;;;45.10;;
42338;SDS011;27993;45.392;10.918;2023-02-01T16:09:38;84.43;;;47.03;;
42338;SDS011;27993;45.392;10.918;2023-02-01T16:12:23;87.28;;;43.47;;
42338;SDS011;27993;45.392;10.918;2023-02-01T16:14:57;98.68;;;44.10;;
42338;SDS011;27993;45.392;10.918;2023-02-01T16:17:27;87.77;;;46.77;;
42338;SDS011;27993;45.392;10.918;2023-02-01T16:19:58;105.23;;;47.97;;
42338;SDS011;27993;45.392;10.918;2023-02-01T16:22:29;79.67;;;46.17;;
42338;SDS011;27993;45.392;10.918;2023-02-01T16:24:59;85.83;;;45.13;;
42338;SDS011;27993;45.392;10.918;2023-02-01T16:27:31;73.82;;;44.38;;
42338;SDS011;27993;45.392;10.918;2023-02-01T16:30:02;82.07;;;45.23;;
42338;SDS011;27993;45.392;10.918;2023-02-01T16:32:33;92.73;;;51.37;;
42338;SDS011;27993;45.392;10.918;2023-02-01T16:35:04;95.07;;;53.17;;
42338;SDS011;27993;45.392;10.918;2023-02-01T16:38:12;97.22;;;52.58;;
42338;SDS011;27993;45.392;10.918;2023-02-01T16:40:45;108.87;;;54.35;;
42338;SDS011;27993;45.392;10.918;2023-02-01T16:43:17;97.85;;;52.67;;
42338;SDS011;27993;45.392;10.918;2023-02-01T16:45:51;90.15;;;51.50;;
42338;SDS011;27993;45.392;10.918;2023-02-01T16:48:30;129.77;;;53.70;;
42338;SDS011;27993;45.392;10.918;2023-02-01T16:51:07;100.40;;;50.70;;
42338;SDS011;27993;45.392;10.918;2023-02-01T16:53:40;104.03;;;55.83;;
42338;SDS011;27993;45.392;10.918;2023-02-01T16:56:19;102.90;;;58.90;;
42338;SDS011;27993;45.392;10.918;2023-02-01T16:58:52;102.50;;;55.60;;
42338;SDS011;27993;45.392;10.918;2023-02-01T17:01:24;102.97;;;54.63;;
42338;SDS011;27993;45.392;10.918;2023-02-01T17:03:55;97.55;;;50.33;;
42338;SDS011;27993;45.392;10.918;2023-02-01T17:06:26;98.07;;;51.17;;
42338;SDS011;27993;45.392;10.918;2023-02-01T17:09:02;102.03;;;50.03;;
42338;SDS011;27993;45.392;10.918;2023-02-01T17:11:36;101.97;;;51.03;;
42338;SDS011;27993;45.392;10.918;2023-02-01T17:14:15;92.80;;;48.63;;
42338;SDS011;27993;45.392;10.918;2023-02-01T17:16:48;101.18;;;50.30;;
42338;SDS011;27993;45.392;10.918;2023-02-01T17:21:55;87.18;;;48.72;;
42338;SDS011;27993;45.392;10.918;2023-02-01T17:24:29;111.45;;;49.35;;
42338;SDS011;27993;45.392;10.918;2023-02-01T17:27:01;86.12;;;47.72;;
42338;SDS011;27993;45.392;10.918;2023-02-01T17:29:33;104.32;;;50.92;;
42338;SDS011;27993;45.392;10.918;2023-02-01T17:32:04;103.40;;;54.27;;
42338;SDS011;27993;45.392;10.918;2023-02-01T17:34:34;100.43;;;53.25;;
42338;SDS011;27993;45.392;10.918;2023-02-01T17:37:05;102.18;;;52.92;;